Time;durP1;ratioP1;P1;durP2;ratioP2;P2;SDS_P1;SDS_P2;PMS_P1;PMS_P2;Temp;Humidity;BMP_temperature;BMP_pressure;BME280_temperature;BME280_humidity;BME280_pressure;Samples;Min_cycle;Max_cycle;Signal;HPM_P1;HPM_P2
2022/08/25 00:01:57;;;;;;;4.78;2.78;;;19.40;89.70;;;;;;5042201;28;20417;-64
2022/08/25 00:04:24;;;;;;;3.70;3.05;;;19.40;90.00;;;;;;5034424;28;20151;-64
2022/08/25 00:06:51;;;;;;;10.25;3.95;;;19.40;90.20;;;;;;5041942;28;20095;-66
2022/08/25 00:09:19;;;;;;;8.63;3.10;;;19.30;90.60;;;;;;5036427;28;20037;-65
2022/08/25 00:11:48;;;;;;;6.38;2.83;;;19.30;90.70;;;;;;5042551;28;20140;-64
2022/08/25 00:14:18;;;;;;;11.93;2.92;;;19.30;90.60;;;;;;5039703;28;20033;-65
2022/08/25 00:16:44;;;;;;;9.90;3.40;;;19.30;90.70;;;;;;5040947;28;20057;-65
2022/08/25 00:19:13;;;;;;;4.65;3.10;;;19.30;91.00;;;;;;5022134;28;20049;-65
2022/08/25 00:21:40;;;;;;;10.48;3.00;;;19.20;91.00;;;;;;5029353;28;20789;-65
2022/08/25 00:24:07;;;;;;;4.60;2.97;;;19.20;91.00;;;;;;5026967;28;20033;-65
2022/08/25 00:26:36;;;;;;;7.57;3.17;;;19.20;91.40;;;;;;5037012;28;20051;-65
2022/08/25 00:29:02;;;;;;;4.82;3.00;;;19.20;91.80;;;;;;5016799;28;20048;-65
2022/08/25 00:31:28;;;;;;;;;;;19.30;91.70;;;;;;5025028;28;20045;-65
2022/08/25 00:33:54;;;;;;;6.45;3.05;;;19.40;92.00;;;;;;5024840;28;19924;-65
2022/08/25 00:36:19;;;;;;;;;;;19.40;92.10;;;;;;5028524;28;20041;-65
2022/08/25 00:38:46;;;;;;;8.82;3.92;;;19.50;92.10;;;;;;5022337;28;20436;-65
2022/08/25 00:41:16;;;;;;;5.68;3.10;;;19.40;92.10;;;;;;5029008;28;20080;-65
2022/08/25 00:44:04;;;;;;;4.60;3.30;;;19.50;92.10;;;;;;5021646;28;20760;-65
2022/08/25 00:46:34;;;;;;;4.38;2.53;;;19.60;91.90;;;;;;5028543;28;20046;-65
2022/08/25 00:49:04;;;;;;;9.15;3.33;;;19.60;91.90;;;;;;5022475;28;20033;-65
2022/08/25 00:51:41;;;;;;;4.65;2.85;;;19.70;92.00;;;;;;5028312;28;20096;-65
2022/08/25 00:54:14;;;;;;;3.83;2.63;;;19.70;92.20;;;;;;5026486;28;20413;-66
2022/08/25 00:56:41;;;;;;;5.28;2.88;;;19.70;91.80;;;;;;5026869;28;20049;-66
2022/08/25 00:59:07;;;;;;;5.40;2.75;;;19.60;91.80;;;;;;5022518;28;20045;-65
2022/08/25 01:01:33;;;;;;;8.02;3.35;;;19.60;92.40;;;;;;5028015;28;20137;-64
2022/08/25 01:03:59;;;;;;;4.93;3.05;;;19.50;92.40;;;;;;5021909;28;20025;-65
2022/08/25 01:06:26;;;;;;;;;;;19.50;92.90;;;;;;5028429;28;20040;-65
2022/08/25 01:08:53;;;;;;;9.05;3.05;;;19.50;92.90;;;;;;5021739;28;19921;-65
2022/08/25 01:11:19;;;;;;;6.65;3.28;;;19.50;92.50;;;;;;5027880;28;20387;-66
2022/08/25 01:13:55;;;;;;;6.22;3.88;;;19.30;92.90;;;;;;5021685;28;20042;-64
2022/08/25 01:16:22;;;;;;;6.35;3.35;;;19.30;92.90;;;;;;5027988;28;20045;-65
2022/08/25 01:18:55;;;;;;;5.68;3.50;;;19.10;93.20;;;;;;5021336;28;20046;-65
2022/08/25 01:21:22;;;;;;;10.32;3.47;;;19.10;93.40;;;;;;5027512;28;20041;-64
2022/08/25 01:23:49;;;;;;;7.60;4.07;;;19.20;93.90;;;;;;5025962;28;20042;-63
2022/08/25 01:26:18;;;;;;;11.25;3.50;;;19.30;93.70;;;;;;5025790;28;20065;-63
2022/08/25 01:31:33;;;;;;;8.55;3.67;;;19.30;93.20;;;;;;5024098;28;20386;-64
2022/08/25 01:33:59;;;;;;;7.95;3.28;;;19.30;93.90;;;;;;5020914;28;20037;-65
2022/08/25 01:36:26;;;;;;;;;;;19.40;93.30;;;;;;5027577;28;20052;-65
2022/08/25 01:38:51;;;;;;;4.07;3.05;;;19.30;93.10;;;;;;5021333;28;19928;-64
2022/08/25 01:41:25;;;;;;;;;;;19.20;93.70;;;;;;5028159;28;20041;-65
2022/08/25 01:43:50;;;;;;;5.20;3.47;;;19.20;93.70;;;;;;5021032;28;19921;-65
2022/08/25 01:46:16;;;;;;;;;;;18.90;93.80;;;;;;5025304;28;20091;-64
2022/08/25 01:48:41;;;;;;;7.20;3.35;;;18.90;94.10;;;;;;5021472;28;19923;-65
2022/08/25 01:51:07;;;;;;;;;;;18.90;94.00;;;;;;5027778;28;20080;-65
2022/08/25 01:53:33;;;;;;;8.95;3.45;;;19.00;94.40;;;;;;5020803;28;20012;-66
2022/08/25 01:56:01;;;;;;;10.80;3.72;;;19.00;94.10;;;;;;5026239;28;20037;-64
2022/08/25 01:58:30;;;;;;;7.50;3.55;;;18.90;94.40;;;;;;5021692;28;20030;-64
2022/08/25 02:00:58;;;;;;;6.05;3.70;;;18.80;95.00;;;;;;5026437;28;20049;-65
2022/08/25 02:03:25;;;;;;;10.45;4.00;;;18.60;94.60;;;;;;5020554;28;20152;-65
2022/08/25 02:05:52;;;;;;;12.70;4.30;;;18.50;95.40;;;;;;5025061;28;20044;-65
2022/08/25 02:08:18;;;;;;;5.18;3.47;;;18.50;95.30;;;;;;5022690;28;20045;-64
2022/08/25 02:10:45;;;;;;;8.73;4.47;;;18.50;95.60;;;;;;5024138;28;20039;-63
2022/08/25 02:13:11;;;;;;;5.88;3.60;;;18.60;95.40;;;;;;5022294;28;20052;-65
2022/08/25 02:15:48;;;;;;;9.35;4.03;;;18.40;95.20;;;;;;5024660;28;20758;-64
2022/08/25 02:18:14;;;;;;;5.72;3.85;;;18.40;95.60;;;;;;5022062;28;20041;-65
2022/08/25 02:20:40;;;;;;;9.55;4.13;;;18.40;95.80;;;;;;5025504;28;20046;-65
2022/08/25 02:23:06;;;;;;;10.40;4.10;;;18.30;96.20;;;;;;5027263;28;20041;-64
2022/08/25 02:25:32;;;;;;;;;;;18.30;96.30;;;;;;5024328;28;20505;-66
2022/08/25 02:27:58;;;;;;;8.57;3.95;;;18.30;96.30;;;;;;5025135;28;20311;-65
2022/08/25 02:30:24;;;;;;;;;;;18.20;96.00;;;;;;5022989;28;20041;-65
2022/08/25 02:32:49;;;;;;;9.10;4.07;;;18.10;96.80;;;;;;5025731;28;20313;-65
2022/08/25 02:35:16;;;;;;;;;;;18.20;96.30;;;;;;5021208;28;20146;-64
2022/08/25 02:37:41;;;;;;;7.15;3.40;;;18.20;96.30;;;;;;5024888;28;19928;-64
2022/08/25 02:40:07;;;;;;;;;;;18.20;96.30;;;;;;5021755;28;20048;-65
2022/08/25 02:42:33;;;;;;;6.85;3.95;;;18.10;96.70;;;;;;5025316;28;19917;-64
2022/08/25 02:44:59;;;;;;;;;;;18.00;97.00;;;;;;5023329;28;20033;-65
2022/08/25 02:47:24;;;;;;;9.10;4.25;;;18.00;97.80;;;;;;5024704;28;20527;-65
2022/08/25 02:49:50;;;;;;;;;;;17.70;96.90;;;;;;5024617;28;20052;-65
2022/08/25 02:52:16;;;;;;;6.22;3.97;;;17.70;97.50;;;;;;5030277;28;19917;-65
2022/08/25 02:54:41;;;;;;;;;;;17.70;97.60;;;;;;5023203;28;20124;-63
2022/08/25 02:57:09;;;;;;;5.93;4.35;;;17.70;97.90;;;;;;5023287;28;19921;-63
2022/08/25 02:59:35;;;;;;;9.65;4.80;;;17.70;97.70;;;;;;5023003;28;20053;-64
2022/08/25 03:02:00;;;;;;;;;;;17.70;97.70;;;;;;5026251;28;20444;-64
2022/08/25 03:04:26;;;;;;;6.80;4.10;;;17.70;98.20;;;;;;5023267;28;19956;-64
2022/08/25 03:06:51;;;;;;;;;;;17.70;97.90;;;;;;5024943;28;20092;-64
2022/08/25 03:09:17;;;;;;;9.90;4.28;;;17.70;97.90;;;;;;5022682;28;19928;-63
2022/08/25 03:11:42;;;;;;;;;;;17.70;98.00;;;;;;5026287;28;20135;-64
2022/08/25 03:14:09;;;;;;;6.03;4.43;;;17.70;98.60;;;;;;5020482;28;19948;-65
2022/08/25 03:16:36;;;;;;;10.73;4.25;;;17.60;98.80;;;;;;5024889;28;20113;-64
2022/08/25 03:19:02;;;;;;;5.00;4.22;;;17.60;99.00;;;;;;5021823;28;20124;-64
2022/08/25 03:21:28;;;;;;;6.40;4.43;;;17.60;98.90;;;;;;5023527;28;20786;-65
2022/08/25 03:23:54;;;;;;;;;;;17.50;99.20;;;;;;5025637;28;20472;-64
2022/08/25 03:29:04;;;;;;;7.85;5.05;;;17.40;99.30;;;;;;5019722;28;20045;-64
2022/08/25 03:31:31;;;;;;;;;;;17.30;99.90;;;;;;5026127;28;20037;-65
2022/08/25 03:33:58;;;;;;;9.05;4.85;;;17.30;99.90;;;;;;5019195;28;19921;-64
2022/08/25 03:36:24;;;;;;;9.93;4.93;;;17.30;99.90;;;;;;5026259;28;20061;-63
2022/08/25 03:38:51;;;;;;;7.85;4.88;;;17.30;99.90;;;;;;5020230;28;20042;-65
2022/08/25 03:41:22;;;;;;;7.13;4.63;;;17.30;99.70;;;;;;5024894;28;20045;-65
2022/08/25 03:43:49;;;;;;;10.77;5.30;;;17.20;99.90;;;;;;5019521;28;20033;-64
2022/08/25 03:46:26;;;;;;;7.05;4.50;;;17.10;99.90;;;;;;5025810;28;20040;-64
2022/08/25 03:48:52;;;;;;;6.72;4.35;;;17.10;99.90;;;;;;5019539;28;20052;-65
2022/08/25 03:51:30;;;;;;;8.00;4.82;;;17.00;99.90;;;;;;5025985;28;20029;-65
2022/08/25 03:53:57;;;;;;;7.95;5.60;;;17.00;99.90;;;;;;5026442;28;20045;-64
2022/08/25 03:56:23;;;;;;;8.85;4.70;;;16.90;99.90;;;;;;5029094;28;20049;-64
2022/08/25 03:58:49;;;;;;;;;;;16.90;99.90;;;;;;5023661;28;20569;-64
2022/08/25 04:01:15;;;;;;;10.93;5.43;;;16.90;99.90;;;;;;5028228;28;20026;-64
2022/08/25 04:03:42;;;;;;;;;;;16.90;99.90;;;;;;5023156;28;20382;-64
2022/08/25 04:06:08;;;;;;;7.93;4.50;;;16.90;99.90;;;;;;5028333;28;19932;-65
2022/08/25 04:08:35;;;;;;;5.68;4.65;;;16.80;99.90;;;;;;5026367;28;20540;-64
2022/08/25 04:11:09;;;;;;;8.43;4.65;;;16.80;99.90;;;;;;5025540;28;20040;-64
2022/08/25 04:13:35;;;;;;;9.25;5.28;;;16.90;99.90;;;;;;5022489;28;20045;-63
2022/08/25 04:16:01;;;;;;;;;;;16.90;99.90;;;;;;5029329;28;20041;-64
2022/08/25 04:18:29;;;;;;;13.17;6.07;;;16.80;99.90;;;;;;5023288;28;19992;-64
2022/08/25 04:21:02;;;;;;;8.48;5.10;;;16.80;99.90;;;;;;5028317;28;20045;-64
2022/08/25 04:23:27;;;;;;;8.52;5.25;;;16.80;99.90;;;;;;5020104;28;20145;-64
2022/08/25 04:25:53;;;;;;;;;;;16.80;99.90;;;;;;5020686;28;20049;-65
2022/08/25 04:28:19;;;;;;;10.23;5.05;;;16.70;99.90;;;;;;5019557;28;19921;-63
2022/08/25 04:30:44;;;;;;;;;;;16.70;99.90;;;;;;5024904;28;20677;-64
2022/08/25 04:33:10;;;;;;;10.40;5.35;;;16.60;99.90;;;;;;5023150;28;19921;-64
2022/08/25 04:35:35;;;;;;;;;;;16.60;99.90;;;;;;5025514;28;20087;-63
2022/08/25 04:38:01;;;;;;;7.35;5.50;;;16.60;99.90;;;;;;5023338;28;19964;-65
2022/08/25 04:40:26;;;;;;;;;;;16.60;99.90;;;;;;5024182;28;20042;-63
2022/08/25 04:42:52;;;;;;;8.18;5.90;;;16.60;99.90;;;;;;5025135;28;19922;-61
2022/08/25 04:45:18;;;;;;;;;;;16.70;99.90;;;;;;5022401;28;20044;-63
2022/08/25 04:47:43;;;;;;;20.23;6.95;;;16.60;99.90;;;;;;5025070;28;19971;-62
2022/08/25 04:50:09;;;;;;;;;;;16.60;99.90;;;;;;5023014;28;20619;-64
2022/08/25 04:52:36;;;;;;;13.15;5.68;;;16.60;99.90;;;;;;5030788;28;19916;-63
2022/08/25 04:55:02;;;;;;;7.32;5.43;;;16.60;99.90;;;;;;5014507;28;20375;-63
2022/08/25 04:57:28;;;;;;;9.52;5.75;;;16.70;99.90;;;;;;5041781;28;20707;-63
2022/08/25 04:59:54;;;;;;;;;;;16.90;99.90;;;;;;5022894;28;20099;-63
2022/08/25 05:02:21;;;;;;;8.88;5.25;;;17.00;99.90;;;;;;5029613;28;19921;-63
2022/08/25 05:04:46;;;;;;;12.98;5.65;;;17.10;99.90;;;;;;5021273;28;20058;-63
2022/08/25 05:07:12;;;;;;;;;;;17.40;99.90;;;;;;5023931;28;20037;-61
2022/08/25 05:09:38;;;;;;;5.90;4.90;;;18.00;99.90;;;;;;5024008;28;19987;-64
2022/08/25 05:12:04;;;;;;;;;;;18.30;99.90;;;;;;5026424;28;20033;-62
2022/08/25 05:14:31;;;;;;;11.20;5.22;;;18.70;99.90;;;;;;5021762;28;19923;-63
2022/08/25 05:16:57;;;;;;;12.93;4.88;;;18.60;99.30;;;;;;5027046;28;20045;-63
2022/08/25 05:19:22;;;;;;;;;;;18.50;99.40;;;;;;5024399;28;20053;-62
2022/08/25 05:21:48;;;;;;;5.70;4.40;;;18.20;99.90;;;;;;5027431;28;19921;-64
2022/08/25 05:24:14;;;;;;;9.38;5.32;;;18.00;99.90;;;;;;5020563;28;20064;-64
2022/08/25 05:26:40;;;;;;;;;;;18.10;99.90;;;;;;5024298;28;20045;-63
2022/08/25 05:29:06;;;;;;;7.30;5.10;;;18.10;99.90;;;;;;5020801;28;20300;-63
2022/08/25 05:31:33;;;;;;;7.47;5.43;;;18.30;99.90;;;;;;5014994;28;20034;-61
2022/08/25 05:33:59;;;;;;;11.35;5.65;;;18.60;99.90;;;;;;5000097;28;20040;-65
2022/08/25 05:36:26;;;;;;;9.85;5.13;;;18.90;99.70;;;;;;5007634;28;20069;-62
2022/08/25 05:38:52;;;;;;;9.13;5.35;;;18.80;99.80;;;;;;5002002;28;20039;-63
2022/08/25 05:41:21;;;;;;;8.27;4.60;;;19.00;99.40;;;;;;5005856;28;20038;-64
2022/08/25 05:43:48;;;;;;;12.73;5.32;;;19.50;98.60;;;;;;5001716;28;20073;-63
2022/08/25 05:46:14;;;;;;;8.30;4.40;;;19.60;98.60;;;;;;5007796;28;20573;-64
2022/08/25 05:48:40;;;;;;;10.52;4.80;;;19.70;98.20;;;;;;5001265;28;20548;-64
2022/08/25 05:51:11;;;;;;;7.78;4.70;;;19.50;98.30;;;;;;5006757;28;20046;-65
2022/08/25 05:53:40;;;;;;;7.13;4.45;;;19.50;98.90;;;;;;5001115;28;20038;-63
2022/08/25 05:56:06;;;;;;;7.28;5.03;;;19.50;99.10;;;;;;5000536;28;20069;-64
2022/08/25 05:58:32;;;;;;;9.68;5.20;;;19.60;99.10;;;;;;5000774;28;20096;-62
2022/08/25 06:02:39;;;;;;;8.18;5.20;;;19.50;99.40;;;;;;5003126;28;20107;-65
2022/08/25 06:03:46;;;;;;;9.35;4.60;;;19.70;99.50;;;;;;5000479;28;20121;-65
2022/08/25 06:06:12;;;;;;;7.45;5.10;;;19.90;99.20;;;;;;5007265;28;20424;-64
2022/08/25 06:08:37;;;;;;;7.22;4.85;;;20.30;98.50;;;;;;5001658;28;20038;-64
2022/08/25 06:11:03;;;;;;;10.50;4.88;;;20.30;97.90;;;;;;5006654;28;20080;-65
2022/08/25 06:13:29;;;;;;;9.75;5.50;;;20.40;98.90;;;;;;5005175;28;20044;-64
2022/08/25 06:15:58;;;;;;;8.82;5.70;;;20.50;99.40;;;;;;5006392;28;20127;-63
2022/08/25 06:18:24;;;;;;;8.75;5.35;;;21.20;99.20;;;;;;5003700;28;20060;-64
2022/08/25 06:20:49;;;;;;;9.52;4.93;;;23.00;96.40;;;;;;5000058;28;20049;-64
2022/08/25 06:23:17;;;;;;;13.60;5.38;;;24.40;92.90;;;;;;5007750;28;20049;-63
2022/08/25 06:25:49;;;;;;;466.50;32.47;;;25.20;91.40;;;;;;4995556;28;20060;-65
2022/08/25 06:28:15;;;;;;;19.17;6.68;;;26.10;90.70;;;;;;5003090;28;20053;-63
2022/08/25 06:30:40;;;;;;;9.60;5.18;;;26.60;87.00;;;;;;5004914;28;20042;-64
2022/08/25 06:33:06;;;;;;;13.55;5.00;;;25.90;87.20;;;;;;5003296;28;20046;-63
2022/08/25 06:35:32;;;;;;;7.35;4.90;;;25.10;90.40;;;;;;5004057;28;20091;-64
2022/08/25 06:37:57;;;;;;;20.73;5.57;;;24.70;91.10;;;;;;5005206;28;20038;-64
2022/08/25 06:40:24;;;;;;;10.75;5.47;;;24.80;91.10;;;;;;5002215;28;20073;-64
2022/08/25 06:42:50;;;;;;;11.35;5.75;;;25.10;88.60;;;;;;5001730;28;20040;-63
2022/08/25 06:45:16;;;;;;;12.63;5.20;;;24.80;90.20;;;;;;5001469;28;20601;-64
2022/08/25 06:47:41;;;;;;;10.93;4.95;;;24.60;90.80;;;;;;5004925;28;20131;-63
2022/08/25 06:50:07;;;;;;;11.23;5.22;;;24.20;91.50;;;;;;5004199;28;20045;-63
2022/08/25 06:52:34;;;;;;;10.30;4.90;;;23.70;92.30;;;;;;5005743;28;20547;-62
2022/08/25 06:55:00;;;;;;;10.88;5.80;;;23.40;92.60;;;;;;5000603;28;20045;-63
2022/08/25 06:57:25;;;;;;;9.75;5.30;;;23.20;93.20;;;;;;5005774;28;20041;-63
2022/08/25 06:59:51;;;;;;;9.52;5.97;;;23.00;93.40;;;;;;5001053;28;20504;-64
2022/08/25 07:02:17;;;;;;;29.55;7.28;;;23.00;93.70;;;;;;5005794;28;20046;-64
2022/08/25 07:04:42;;;;;;;14.27;6.28;;;22.90;93.60;;;;;;5000207;28;20041;-62
2022/08/25 07:07:08;;;;;;;9.55;6.00;;;22.80;93.70;;;;;;5002895;28;20042;-63
2022/08/25 07:09:33;;;;;;;9.43;6.70;;;22.70;93.80;;;;;;4999433;28;20038;-63
2022/08/25 07:12:01;;;;;;;12.93;6.15;;;22.60;93.90;;;;;;5005746;28;20044;-63
2022/08/25 07:14:26;;;;;;;11.38;6.43;;;22.50;94.30;;;;;;4998492;28;20091;-64
2022/08/25 07:16:52;;;;;;;9.35;6.18;;;22.50;94.30;;;;;;5005383;28;20053;-63
2022/08/25 07:19:19;;;;;;;12.02;6.20;;;22.40;94.60;;;;;;5000850;28;20033;-63
2022/08/25 07:21:45;;;;;;;11.63;5.93;;;22.50;94.60;;;;;;5006192;28;20041;-64
2022/08/25 07:24:12;;;;;;;8.00;5.95;;;22.50;94.40;;;;;;5003632;28;20040;-63
2022/08/25 07:26:41;;;;;;;10.43;6.20;;;22.40;94.70;;;;;;5002592;28;20038;-63
2022/08/25 07:29:13;;;;;;;11.07;6.95;;;22.40;94.50;;;;;;5005269;28;20064;-63
2022/08/25 07:31:38;;;;;;;11.20;6.40;;;22.40;94.70;;;;;;5010014;28;20046;-64
2022/08/25 07:36:49;;;;;;;11.98;6.63;;;22.40;94.80;;;;;;5009344;28;20513;-63
2022/08/25 07:39:16;;;;;;;17.40;6.10;;;22.50;94.70;;;;;;5004706;28;20041;-62
2022/08/25 07:41:41;;;;;;;12.43;6.93;;;22.50;94.60;;;;;;5008217;28;20099;-64
2022/08/25 07:44:09;;;;;;;12.73;6.97;;;22.40;94.80;;;;;;5007798;28;20621;-64
2022/08/25 07:46:35;;;;;;;11.07;7.35;;;22.50;94.60;;;;;;5007960;28;20050;-62
2022/08/25 07:49:01;;;;;;;12.77;7.53;;;22.40;94.80;;;;;;5006689;28;20044;-63
2022/08/25 07:51:27;;;;;;;13.05;6.95;;;22.20;95.00;;;;;;5009816;28;20030;-64
2022/08/25 07:53:53;;;;;;;13.45;7.68;;;22.30;95.50;;;;;;5011069;28;20095;-63
2022/08/25 07:56:18;;;;;;;9.93;6.50;;;22.40;95.10;;;;;;5009766;28;20046;-63
2022/08/25 07:58:45;;;;;;;12.05;6.82;;;22.50;94.90;;;;;;5007103;28;20053;-65
2022/08/25 08:01:20;;;;;;;15.25;7.35;;;22.50;95.10;;;;;;5008103;28;20037;-64
2022/08/25 08:03:47;;;;;;;10.93;6.57;;;22.70;95.20;;;;;;5007064;28;20041;-63
2022/08/25 08:06:16;;;;;;;12.77;7.55;;;23.20;94.40;;;;;;5008839;28;20497;-64
2022/08/25 08:08:44;;;;;;;9.25;6.47;;;23.90;93.00;;;;;;5005827;28;20041;-64
2022/08/25 08:11:18;;;;;;;13.52;5.70;;;25.60;91.10;;;;;;5009277;28;20044;-64
2022/08/25 08:13:45;;;;;;;9.88;6.82;;;27.10;87.20;;;;;;5005112;28;20038;-64
2022/08/25 08:16:13;;;;;;;10.13;6.25;;;28.50;81.30;;;;;;5007189;28;20379;-62
2022/08/25 08:18:39;;;;;;;11.20;5.97;;;29.50;78.70;;;;;;5004307;28;20050;-63
2022/08/25 08:21:11;;;;;;;10.35;5.68;;;30.10;75.50;;;;;;5008540;28;20572;-62
2022/08/25 08:23:37;;;;;;;7.70;4.90;;;30.90;75.30;;;;;;5008437;28;20145;-62
2022/08/25 08:26:03;;;;;;;6.47;5.25;;;31.40;71.70;;;;;;5001209;28;20587;-62
2022/08/25 08:28:29;;;;;;;9.77;5.13;;;31.70;71.70;;;;;;5003844;28;20038;-62
2022/08/25 08:30:56;;;;;;;18.02;5.75;;;32.00;68.70;;;;;;5007382;28;20668;-62
2022/08/25 08:33:23;;;;;;;6.68;5.35;;;32.50;67.10;;;;;;5003606;28;20109;-62
2022/08/25 08:35:56;;;;;;;11.13;6.78;;;33.00;66.60;;;;;;5006661;28;20053;-62
2022/08/25 08:38:22;;;;;;;14.98;5.47;;;33.20;65.70;;;;;;5003668;28;20549;-62
2022/08/25 08:44:08;;;;;;;8.65;6.05;;;32.40;64.20;;;;;;5001730;28;20037;-61
2022/08/25 08:46:43;;;;;;;9.98;6.25;;;30.50;68.20;;;;;;5008535;28;20050;-61
2022/08/25 08:49:24;;;;;;;11.70;6.68;;;28.40;75.10;;;;;;4998391;28;20037;-63
2022/08/25 08:51:58;;;;;;;13.90;6.15;;;26.80;81.00;;;;;;5006224;28;20748;-64
2022/08/25 08:54:27;;;;;;;6.93;4.90;;;26.20;81.50;;;;;;5005914;28;20042;-63
2022/08/25 08:57:11;;;;;;;12.15;5.60;;;26.10;83.40;;;;;;5007480;28;20045;-64
2022/08/25 08:59:52;;;;;;;8.63;5.07;;;26.00;83.20;;;;;;5001595;28;20038;-65
2022/08/25 09:02:52;;;;;;;7.60;4.82;;;25.60;83.10;;;;;;5007639;28;20034;-63
2022/08/25 09:05:20;;;;;;;8.00;4.80;;;25.50;84.10;;;;;;5006456;28;20038;-63
2022/08/25 09:07:53;;;;;;;10.38;5.70;;;25.50;85.10;;;;;;5006709;28;20064;-64
2022/08/25 09:10:20;;;;;;;11.65;5.75;;;25.60;85.00;;;;;;5003959;28;20033;-63
2022/08/25 09:12:59;;;;;;;7.95;4.88;;;25.60;84.60;;;;;;5005407;28;20048;-63
2022/08/25 09:19:08;;;;;;;10.13;5.93;;;25.60;85.10;;;;;;4976940;28;20042;-61
2022/08/25 09:21:49;;;;;;;14.93;5.50;;;25.10;85.50;;;;;;5001887;28;20406;-64
2022/08/25 09:24:29;;;;;;;10.15;5.00;;;25.00;85.90;;;;;;4996212;28;20099;-64
2022/08/25 09:27:24;;;;;;;10.45;5.10;;;25.00;86.00;;;;;;5002061;28;20056;-64
2022/08/25 09:29:56;;;;;;;11.25;6.00;;;24.90;87.20;;;;;;5002222;28;20046;-66
2022/08/25 09:32:22;;;;;;;9.75;5.15;;;25.20;86.30;;;;;;5005290;28;20583;-65
2022/08/25 09:34:49;;;;;;;9.88;5.28;;;25.40;86.00;;;;;;5001603;28;20048;-65
2022/08/25 09:37:15;;;;;;;13.68;5.45;;;25.30;84.90;;;;;;5006071;28;20605;-65
2022/08/25 09:39:41;;;;;;;8.30;5.10;;;25.30;84.40;;;;;;5000540;28;20128;-64
2022/08/25 09:42:07;;;;;;;6.10;4.55;;;25.30;84.10;;;;;;5006720;28;20030;-65
2022/08/25 09:44:44;;;;;;;9.10;5.15;;;25.50;85.00;;;;;;5000570;28;20121;-65
2022/08/25 09:47:22;;;;;;;7.57;4.45;;;25.80;84.40;;;;;;5007286;28;20520;-64
2022/08/25 09:50:00;;;;;;;7.50;4.63;;;25.60;82.60;;;;;;5005022;28;20088;-63
2022/08/25 09:52:36;;;;;;;13.30;5.85;;;25.70;83.20;;;;;;5011035;28;20053;-63
2022/08/25 09:55:05;;;;;;;13.95;6.07;;;25.80;83.00;;;;;;5001835;28;20117;-65
2022/08/25 09:57:57;;;;;;;10.35;5.50;;;25.70;84.60;;;;;;5005611;28;20587;-65
2022/08/25 10:00:30;;;;;;;7.82;5.55;;;25.60;83.60;;;;;;5002399;28;20062;-64
2022/08/25 10:03:19;;;;;;;9.52;5.35;;;25.70;83.70;;;;;;5005702;28;20100;-65
2022/08/25 10:05:48;;;;;;;8.52;4.97;;;25.70;82.10;;;;;;5005569;28;20210;-65
2022/08/25 10:08:31;;;;;;;11.38;5.10;;;25.70;82.90;;;;;;5004164;28;20037;-65
2022/08/25 10:11:00;;;;;;;9.00;4.65;;;25.80;83.80;;;;;;5001316;28;20108;-64
2022/08/25 10:13:35;;;;;;;9.57;5.03;;;26.00;82.30;;;;;;5004710;28;20513;-62
2022/08/25 10:16:27;;;;;;;9.68;5.32;;;26.20;81.30;;;;;;4999534;28;20046;-63
2022/08/25 10:19:07;;;;;;;11.15;5.22;;;26.00;80.50;;;;;;5000749;28;20039;-66
2022/08/25 10:21:33;;;;;;;9.52;5.35;;;26.10;80.80;;;;;;5007613;28;20065;-65
2022/08/25 10:24:01;;;;;;;9.35;4.80;;;26.10;82.80;;;;;;4996130;28;20046;-64
2022/08/25 10:26:42;;;;;;;9.23;5.97;;;26.10;80.90;;;;;;5001116;28;20057;-61
2022/08/25 10:29:37;;;;;;;9.82;6.00;;;26.00;81.30;;;;;;5001365;28;20092;-64
2022/08/25 10:32:06;;;;;;;8.80;5.88;;;26.00;81.70;;;;;;5006109;28;20041;-62
2022/08/25 10:34:48;;;;;;;12.35;5.55;;;25.80;81.20;;;;;;5001494;28;20042;-63
2022/08/25 10:37:29;;;;;;;11.30;6.38;;;25.80;81.90;;;;;;5002035;28;20037;-64
2022/08/25 10:40:10;;;;;;;7.95;5.70;;;26.00;81.20;;;;;;5004585;28;20042;-64
2022/08/25 10:42:39;;;;;;;18.02;6.43;;;26.10;81.50;;;;;;5005272;28;20034;-64
2022/08/25 10:45:42;;;;;;;11.88;5.28;;;26.00;81.00;;;;;;5003315;28;20042;-65
2022/08/25 10:48:20;;;;;;;7.43;4.57;;;26.00;80.80;;;;;;5004811;28;20042;-64
2022/08/25 10:51:27;;;;;;;6.57;4.78;;;26.30;80.00;;;;;;5005148;28;20068;-64
2022/08/25 10:54:18;;;;;;;7.90;4.78;;;26.50;79.60;;;;;;5003535;28;20042;-62
2022/08/25 10:57:02;;;;;;;7.50;4.53;;;26.80;78.60;;;;;;5000338;28;20046;-64
2022/08/25 11:00:00;;;;;;;6.70;4.57;;;26.90;77.20;;;;;;5004708;28;20111;-64
2022/08/25 11:02:51;;;;;;;8.93;5.00;;;27.00;75.70;;;;;;5003335;28;20049;-64
2022/08/25 11:05:45;;;;;;;8.38;5.43;;;26.60;76.20;;;;;;5004607;28;20029;-64
2022/08/25 11:08:37;;;;;;;8.52;4.15;;;26.60;76.80;;;;;;5004508;28;20609;-64
2022/08/25 11:11:29;;;;;;;10.07;4.38;;;26.70;74.00;;;;;;5005375;28;20455;-65
2022/08/25 11:14:04;;;;;;;10.38;5.15;;;26.80;74.30;;;;;;5004776;28;20034;-65
2022/08/25 11:16:38;;;;;;;11.02;5.20;;;26.70;74.10;;;;;;5002828;28;20050;-62
2022/08/25 11:19:23;;;;;;;9.70;4.30;;;26.60;75.70;;;;;;5002944;28;20072;-64
2022/08/25 11:21:59;;;;;;;20.48;5.25;;;26.60;75.50;;;;;;5005442;28;20040;-65
2022/08/25 11:24:47;;;;;;;7.07;4.90;;;26.80;75.10;;;;;;5002414;28;20049;-64
2022/08/25 11:27:26;;;;;;;8.65;5.78;;;26.60;75.70;;;;;;5007202;28;20099;-64
2022/08/25 11:30:06;;;;;;;15.60;5.15;;;26.50;75.80;;;;;;5004352;28;20503;-65
2022/08/25 11:32:34;;;;;;;12.50;5.70;;;26.60;77.20;;;;;;5004608;28;20045;-63
2022/08/25 11:35:07;;;;;;;13.40;4.93;;;26.40;76.10;;;;;;5001588;28;20038;-64
2022/08/25 11:37:44;;;;;;;6.97;4.68;;;26.50;76.80;;;;;;5005771;28;20041;-63
2022/08/25 11:40:30;;;;;;;12.40;5.10;;;26.70;75.90;;;;;;5005826;28;20076;-63
2022/08/25 11:43:09;;;;;;;12.38;4.88;;;26.80;74.40;;;;;;5004506;28;20058;-62
2022/08/25 11:45:50;;;;;;;8.40;4.43;;;27.10;74.90;;;;;;5004921;28;20072;-64
2022/08/25 11:48:28;;;;;;;6.38;4.82;;;27.10;75.20;;;;;;5002082;28;20100;-63
2022/08/25 11:51:05;;;;;;;9.55;4.70;;;27.40;75.40;;;;;;5004869;28;20049;-63
2022/08/25 11:53:37;;;;;;;10.05;5.20;;;27.50;73.50;;;;;;5006776;28;20053;-64
2022/08/25 11:56:11;;;;;;;11.80;5.70;;;27.10;73.60;;;;;;5004658;28;20041;-63
2022/08/25 11:58:49;;;;;;;11.00;5.53;;;26.90;74.70;;;;;;5000589;28;20050;-63
2022/08/25 12:01:41;;;;;;;8.32;5.40;;;26.60;75.40;;;;;;5008151;28;20044;-64
2022/08/25 12:04:38;;;;;;;8.48;4.78;;;26.40;75.90;;;;;;5003277;28;20045;-64
2022/08/25 12:07:10;;;;;;;10.15;5.20;;;26.20;76.60;;;;;;5016575;28;20041;-64
2022/08/25 12:09:52;;;;;;;8.60;4.03;;;26.10;77.80;;;;;;5002742;28;20498;-63
2022/08/25 12:12:34;;;;;;;5.05;4.13;;;26.10;75.10;;;;;;5014763;28;20068;-62
2022/08/25 12:15:31;;;;;;;8.25;4.38;;;26.30;75.30;;;;;;5004752;28;20041;-60
2022/08/25 12:18:20;;;;;;;9.37;5.30;;;26.70;75.60;;;;;;5005904;28;20041;-63
2022/08/25 12:20:52;;;;;;;7.40;4.60;;;27.00;74.20;;;;;;5006911;28;20124;-62
2022/08/25 12:23:34;;;;;;;10.88;5.22;;;27.10;74.40;;;;;;5006105;28;20049;-59
2022/08/25 12:26:21;;;;;;;10.02;4.25;;;27.00;73.10;;;;;;5007035;28;20046;-64
2022/08/25 12:28:55;;;;;;;10.65;4.22;;;27.00;74.70;;;;;;5005089;28;20053;-65
2022/08/25 12:31:43;;;;;;;6.30;4.78;;;27.20;74.00;;;;;;5016546;28;20065;-66
2022/08/25 12:34:52;;;;;;;6.60;4.57;;;27.20;73.40;;;;;;5015372;28;20041;-64
2022/08/25 12:37:21;;;;;;;7.93;4.30;;;26.90;73.80;;;;;;5025224;28;20041;-63
2022/08/25 12:39:50;;;;;;;6.10;4.53;;;26.80;75.00;;;;;;5022721;28;20041;-65
2022/08/25 12:42:30;;;;;;;7.85;4.97;;;26.60;75.10;;;;;;5028562;28;20041;-65
2022/08/25 12:45:19;;;;;;;10.32;4.57;;;26.50;75.40;;;;;;5023740;28;20421;-66
2022/08/25 12:47:47;;;;;;;8.95;4.43;;;26.40;75.90;;;;;;5025260;28;20046;-64
2022/08/25 12:50:40;;;;;;;10.77;4.68;;;26.70;77.50;;;;;;5026201;28;20405;-66
2022/08/25 12:53:44;;;;;;;10.93;4.95;;;26.60;75.00;;;;;;5030925;28;20067;-65
2022/08/25 12:56:18;;;;;;;4.95;3.72;;;26.30;74.90;;;;;;5025485;28;20064;-66
2022/08/25 12:58:53;;;;;;;10.52;4.45;;;26.20;74.50;;;;;;5028356;28;20068;-66
2022/08/25 13:01:34;;;;;;;7.82;4.10;;;26.20;75.10;;;;;;5024059;28;20050;-66
2022/08/25 13:04:21;;;;;;;5.25;3.85;;;26.40;75.30;;;;;;5027097;28;20362;-66
2022/08/25 13:07:15;;;;;;;6.97;4.18;;;26.70;74.90;;;;;;5034463;28;20052;-65
2022/08/25 13:09:53;;;;;;;5.65;4.13;;;26.90;72.80;;;;;;5028748;28;20056;-66
2022/08/25 13:12:41;;;;;;;8.75;4.78;;;27.00;74.60;;;;;;5040314;28;20029;-65
2022/08/25 13:15:13;;;;;;;6.15;4.45;;;27.10;72.80;;;;;;5035588;28;20068;-64
2022/08/25 13:17:39;;;;;;;7.03;4.40;;;27.10;72.90;;;;;;5021890;28;20054;-62
2022/08/25 13:20:24;;;;;;;6.93;4.15;;;27.10;74.70;;;;;;5028893;28;20040;-63
2022/08/25 13:22:55;;;;;;;6.55;4.90;;;27.00;74.50;;;;;;5027958;28;20508;-64
2022/08/25 13:25:22;;;;;;;10.07;4.35;;;26.80;72.40;;;;;;5020378;28;20123;-64
2022/08/25 13:27:55;;;;;;;10.75;4.65;;;27.00;74.20;;;;;;5024992;28;20045;-64
2022/08/25 13:30:30;;;;;;;7.88;3.97;;;27.20;72.60;;;;;;5028560;28;20068;-64